Kenton, Delaware
Current Conditions -  °F | °C
As of 4:58 PM on Sunday 23 Nov 2014 (Local Time) from KDOV Reporting Station
Scattered Clouds Scattered Clouds  
Wind Chill: 43°   Ceiling: Unl
Heat Index: 46°   Visibility: 10mi
Dew Point: 46°   Wind: 6mph
Humidity: 99%   Direction: 90°E
Pressure: 30.11"   Gusts: NA
Location:  39.23°N, 75.66°W
Report Text: KDOV 232158Z AUTO 09005KT 10SM SCT220 08/08 A3011 RMK AO2 SLP200 T00770075
Loading
Personal Weather Stations






























Interactive Weather Map New forecast layout! Learn more

10-Day Weather Forecast

Advertisements
Track Severe Weather on mobile